Terminal Aerodrome Forecast
Issued by NWS Rapid City, SD

Home | Current Version | Previous Version | Graphics & Text | Print | Product List | Glossary On
Versions: 1 2 3 4 5 6 7 8 9 10 11 12 13 14 15 16 17 18 19 20 21 22 23 24 25 26 27
000
FTUS43 KUNR 261121
TAFRAP
TAF
KRAP 261121Z 2612/2712 04012KT 3SM -RASN BR SCT004 BKN005 OVC010
      TEMPO 2612/2615 3SM -RASN BKN004 OVC010
     FM261700 35015KT 6SM -SHRA BR SCT005 OVC008
     FM270300 35012KT 5SM BR OVC005=

USA.gov is the U.S. government's official web portal to all federal, state and local government web resources and services.